createdAt,value
2023-02-06T00:00:03.881Z,3.03
2023-02-06T00:02:35.569Z,2.53
2023-02-06T00:05:09.051Z,2.40
2023-02-06T00:07:40.002Z,2.53
2023-02-06T00:10:10.791Z,2.60
2023-02-06T00:12:40.216Z,2.40
2023-02-06T00:15:14.413Z,2.53
2023-02-06T00:17:45.406Z,2.30
2023-02-06T00:20:18.411Z,1.77
2023-02-06T00:22:46.976Z,2.70
2023-02-06T00:25:18.851Z,2.70
2023-02-06T00:27:50.641Z,2.30
2023-02-06T00:30:22.931Z,2.50
2023-02-06T00:32:54.576Z,2.40
2023-02-06T00:35:25.576Z,2.40
2023-02-06T00:37:58.029Z,2.33
2023-02-06T00:40:28.198Z,2.43
2023-02-06T00:43:00.354Z,2.07
2023-02-06T00:45:30.635Z,2.60
2023-02-06T00:48:01.376Z,2.23
2023-02-06T00:50:31.303Z,2.50
2023-02-06T00:53:03.067Z,2.17
2023-02-06T00:55:35.468Z,2.53
2023-02-06T00:58:07.893Z,2.30
2023-02-06T01:00:37.904Z,2.10
2023-02-06T01:03:10.610Z,2.60
2023-02-06T01:05:42.580Z,2.47
2023-02-06T01:08:13.777Z,2.60
2023-02-06T01:10:42.849Z,2.53
2023-02-06T01:13:18.245Z,3.13
2023-02-06T01:15:51.172Z,2.27
2023-02-06T01:18:21.626Z,2.63
2023-02-06T01:20:52.342Z,2.07
2023-02-06T01:23:22.968Z,2.07
2023-02-06T01:25:50.384Z,2.63
2023-02-06T01:28:21.325Z,2.30
2023-02-06T01:30:49.769Z,2.33
2023-02-06T01:33:19.492Z,2.13
2023-02-06T01:35:58.334Z,2.10
2023-02-06T01:38:27.918Z,2.03
2023-02-06T01:41:00.682Z,2.17
2023-02-06T01:43:44.399Z,2.10
2023-02-06T01:46:20.593Z,2.10
2023-02-06T01:48:56.526Z,2.53
2023-02-06T01:51:30.075Z,1.90
2023-02-06T01:54:06.377Z,2.03
2023-02-06T01:59:27.016Z,1.57
2023-02-06T02:01:58.167Z,2.33
2023-02-06T02:04:31.789Z,1.90
2023-02-06T02:07:21.595Z,2.20
2023-02-06T02:09:54.098Z,1.73
2023-02-06T02:12:22.437Z,1.90
2023-02-06T02:14:55.920Z,2.20
2023-02-06T02:17:44.364Z,2.43
2023-02-06T02:20:17.423Z,2.03
2023-02-06T02:23:05.545Z,1.80
2023-02-06T02:25:53.249Z,2.00
2023-02-06T02:28:41.572Z,1.93
2023-02-06T02:31:21.967Z,1.83
2023-02-06T02:34:22.044Z,1.67
2023-02-06T02:37:16.971Z,2.40
2023-02-06T02:39:52.941Z,2.13
2023-02-06T02:42:41.952Z,1.40
2023-02-06T02:45:30.413Z,1.90
2023-02-06T02:48:09.471Z,1.80
2023-02-06T02:50:40.930Z,2.10
2023-02-06T02:53:13.470Z,2.00
2023-02-06T02:55:45.665Z,1.93
2023-02-06T02:58:15.742Z,2.20
2023-02-06T03:00:49.831Z,2.27
2023-02-06T03:03:20.846Z,2.10
2023-02-06T03:06:12.226Z,2.50
2023-02-06T03:09:07.507Z,1.97
2023-02-06T03:11:42.393Z,1.67
2023-02-06T03:14:32.249Z,1.90
2023-02-06T03:17:06.334Z,1.70
2023-02-06T03:19:36.806Z,1.97
2023-02-06T03:22:18.023Z,1.70
2023-02-06T03:24:48.411Z,1.97
2023-02-06T03:27:20.511Z,1.53
2023-02-06T03:29:52.089Z,1.87
2023-02-06T03:32:32.760Z,1.60
2023-02-06T03:35:11.198Z,1.30
2023-02-06T03:37:43.561Z,1.80
2023-02-06T03:40:18.950Z,1.40
2023-02-06T03:42:51.265Z,1.40
2023-02-06T03:45:34.737Z,1.70
2023-02-06T03:48:07.909Z,1.93
2023-02-06T03:50:41.687Z,1.90
2023-02-06T03:53:13.477Z,1.20
2023-02-06T03:55:44.603Z,1.57
2023-02-06T03:58:28.586Z,1.40
2023-02-06T04:00:56.044Z,2.03
2023-02-06T04:03:28.671Z,1.47
2023-02-06T04:05:57.201Z,1.40
2023-02-06T04:08:27.552Z,1.70
2023-02-06T04:11:00.578Z,1.50
2023-02-06T04:13:36.966Z,1.87
2023-02-06T04:16:08.896Z,1.57
2023-02-06T04:18:41.049Z,1.60
2023-02-06T04:21:08.953Z,1.73
2023-02-06T04:23:37.473Z,1.40
2023-02-06T04:26:11.050Z,1.30
2023-02-06T04:28:39.903Z,1.67
2023-02-06T04:31:13.854Z,1.73
2023-02-06T04:33:46.688Z,1.20
2023-02-06T04:36:17.568Z,1.30
2023-02-06T04:38:46.786Z,1.33
2023-02-06T04:41:18.704Z,1.50
2023-02-06T04:43:50.524Z,1.13
2023-02-06T04:46:20.476Z,1.23
2023-02-06T04:48:53.287Z,1.50
2023-02-06T04:51:24.163Z,1.53
2023-02-06T04:53:58.550Z,1.17
2023-02-06T04:56:31.029Z,1.30
2023-02-06T04:59:01.871Z,1.40
2023-02-06T05:01:33.925Z,1.50
2023-02-06T05:04:04.616Z,1.20
2023-02-06T05:06:34.906Z,1.53
2023-02-06T05:09:05.327Z,1.57
2023-02-06T05:11:34.493Z,1.50
2023-02-06T05:14:04.492Z,1.50
2023-02-06T05:16:36.620Z,1.70
2023-02-06T05:19:05.299Z,1.90
2023-02-06T05:21:46.284Z,1.57
2023-02-06T05:24:18.341Z,1.63
2023-02-06T05:26:47.106Z,1.83
2023-02-06T05:29:18.985Z,1.63
2023-02-06T05:31:51.803Z,1.57
2023-02-06T05:34:23.844Z,1.40
2023-02-06T05:36:56.108Z,1.67
2023-02-06T05:39:28.075Z,1.43
2023-02-06T05:41:56.519Z,2.10
2023-02-06T05:47:08.923Z,1.33
2023-02-06T05:49:41.226Z,1.80
2023-02-06T05:52:11.253Z,1.70
2023-02-06T05:54:39.996Z,1.33
2023-02-06T05:57:12.518Z,2.00
2023-02-06T05:59:44.406Z,1.50
2023-02-06T06:02:15.317Z,1.57
2023-02-06T06:04:47.221Z,1.40
2023-02-06T06:07:18.022Z,1.60
2023-02-06T06:09:48.908Z,1.73
2023-02-06T06:12:17.932Z,1.63
2023-02-06T06:14:46.786Z,1.67
2023-02-06T06:17:20.054Z,1.90
2023-02-06T06:19:52.175Z,1.70
2023-02-06T06:22:24.230Z,1.47
2023-02-06T06:24:55.756Z,1.90
2023-02-06T06:27:25.437Z,1.50
2023-02-06T06:29:56.031Z,1.77
2023-02-06T06:32:27.984Z,1.40
2023-02-06T06:34:58.702Z,1.47
2023-02-06T06:37:30.810Z,1.87
2023-02-06T06:40:00.274Z,1.73
2023-02-06T06:45:13.643Z,17.17
2023-02-06T06:47:50.677Z,17.13
2023-02-06T06:50:19.369Z,15.97
2023-02-06T06:52:48.261Z,13.83
2023-02-06T06:55:20.697Z,13.00
2023-02-06T06:57:55.027Z,10.77
2023-02-06T07:00:32.958Z,11.37
2023-02-06T07:03:03.686Z,9.47
2023-02-06T07:05:36.076Z,9.10
2023-02-06T07:08:10.152Z,8.57
2023-02-06T07:10:41.292Z,8.33
2023-02-06T07:13:13.505Z,8.27
2023-02-06T07:15:46.609Z,7.53
2023-02-06T07:18:20.142Z,7.53
2023-02-06T07:20:49.264Z,6.37
2023-02-06T07:23:20.003Z,7.13
2023-02-06T07:25:49.819Z,6.50
2023-02-06T07:28:21.898Z,5.73
2023-02-06T07:30:56.207Z,5.73
2023-02-06T07:33:26.209Z,5.40
2023-02-06T07:35:58.245Z,5.63
2023-02-06T07:38:28.810Z,4.80
2023-02-06T07:41:12.774Z,5.47
2023-02-06T07:43:42.829Z,4.90
2023-02-06T07:46:19.998Z,4.67
2023-02-06T07:48:49.634Z,4.47
2023-02-06T07:51:20.705Z,4.60
2023-02-06T07:53:52.794Z,4.57
2023-02-06T07:56:26.762Z,4.37
2023-02-06T07:58:58.072Z,3.87
2023-02-06T08:01:27.244Z,3.70
2023-02-06T08:03:58.224Z,3.90
2023-02-06T08:06:31.892Z,3.20
2023-02-06T08:09:03.765Z,3.53
2023-02-06T08:11:38.849Z,2.93
2023-02-06T08:14:09.781Z,3.17
2023-02-06T08:16:41.986Z,2.30
2023-02-06T08:19:15.235Z,3.47
2023-02-06T08:21:44.151Z,2.63
2023-02-06T08:24:15.797Z,2.43
2023-02-06T08:26:47.076Z,2.60
2023-02-06T08:29:18.764Z,2.37
2023-02-06T08:31:50.859Z,2.30
2023-02-06T08:34:22.828Z,2.40
2023-02-06T08:36:50.312Z,2.30
2023-02-06T08:39:24.281Z,2.30
2023-02-06T08:41:55.184Z,2.17
2023-02-06T08:44:25.107Z,1.87
2023-02-06T08:47:09.344Z,2.47
2023-02-06T08:49:42.295Z,2.20
2023-02-06T08:52:11.716Z,1.90
2023-02-06T08:54:43.864Z,2.37
2023-02-06T09:00:00.036Z,1.87
2023-02-06T09:02:33.314Z,1.97
2023-02-06T09:05:05.946Z,1.77
2023-02-06T09:07:34.438Z,1.93
2023-02-06T09:10:26.693Z,1.90
2023-02-06T09:13:02.590Z,2.10
2023-02-06T09:15:32.555Z,2.13
2023-02-06T09:18:03.793Z,2.00
2023-02-06T09:20:32.749Z,2.00
2023-02-06T09:23:03.925Z,1.93
2023-02-06T09:25:34.722Z,2.10
2023-02-06T09:28:07.685Z,2.37
2023-02-06T09:30:37.706Z,1.93
2023-02-06T09:33:09.608Z,1.60
2023-02-06T09:35:39.846Z,2.17
2023-02-06T09:38:11.698Z,1.90
2023-02-06T09:40:44.344Z,1.90
2023-02-06T09:43:18.085Z,2.10
2023-02-06T09:45:49.193Z,1.73
2023-02-06T09:51:23.467Z,1.73
2023-02-06T09:54:05.671Z,1.70
2023-02-06T09:56:35.704Z,2.03
2023-02-06T09:59:24.017Z,2.20
2023-02-06T10:02:06.039Z,2.13
2023-02-06T10:04:38.260Z,1.60
2023-02-06T10:07:23.350Z,1.70
2023-02-06T10:10:04.390Z,1.50
2023-02-06T10:12:48.031Z,1.97
2023-02-06T10:15:28.458Z,1.60
2023-02-06T10:18:05.194Z,1.90
2023-02-06T10:20:45.084Z,1.70
2023-02-06T10:23:16.556Z,1.77
2023-02-06T10:25:54.520Z,1.57
2023-02-06T10:31:24.165Z,1.83
2023-02-06T10:34:11.129Z,1.67
2023-02-06T10:36:51.823Z,1.83
2023-02-06T10:40:10.331Z,1.80
2023-02-06T10:42:59.979Z,1.87
2023-02-06T10:45:48.328Z,1.90
2023-02-06T10:48:35.986Z,2.10
2023-02-06T10:51:22.401Z,1.77
2023-02-06T10:53:54.633Z,2.07
2023-02-06T10:56:29.084Z,2.03
2023-02-06T10:59:03.353Z,1.90
2023-02-06T11:04:37.418Z,2.23
2023-02-06T11:07:13.118Z,2.27
2023-02-06T11:09:44.506Z,2.40
2023-02-06T11:12:32.184Z,2.23
2023-02-06T11:15:08.130Z,2.10
2023-02-06T11:17:40.121Z,2.27
2023-02-06T11:20:21.803Z,2.60
2023-02-06T11:22:53.678Z,2.30
2023-02-06T11:25:38.286Z,2.40
2023-02-06T11:28:31.243Z,2.17
2023-02-06T11:31:00.589Z,2.67
2023-02-06T11:33:47.652Z,2.20
2023-02-06T11:36:45.073Z,2.20
2023-02-06T11:39:32.770Z,2.00
2023-02-06T11:42:08.668Z,2.20
2023-02-06T11:44:41.548Z,2.63
2023-02-06T11:47:35.493Z,2.30
2023-02-06T11:50:17.432Z,2.47
2023-02-06T11:52:48.799Z,2.33
2023-02-06T11:55:37.517Z,2.27
2023-02-06T11:58:24.298Z,2.50
2023-02-06T12:01:03.165Z,2.37
2023-02-06T12:03:36.967Z,2.47
2023-02-06T12:06:16.928Z,2.13
2023-02-06T12:08:44.901Z,2.67
2023-02-06T12:11:22.872Z,2.60
2023-02-06T12:14:04.534Z,2.40
2023-02-06T12:16:36.889Z,2.50
2023-02-06T12:19:11.618Z,2.70
2023-02-06T12:21:52.484Z,2.53
2023-02-06T12:24:29.567Z,2.50
2023-02-06T12:27:08.233Z,2.83
2023-02-06T12:29:40.847Z,2.60
2023-02-06T12:32:18.555Z,2.73
2023-02-06T12:34:57.936Z,2.53
2023-02-06T12:37:31.546Z,3.13
2023-02-06T12:40:03.162Z,3.00
2023-02-06T12:42:33.820Z,2.20
2023-02-06T12:45:11.739Z,2.93
2023-02-06T12:48:01.822Z,3.20
2023-02-06T12:50:40.569Z,3.17
2023-02-06T12:53:15.653Z,3.30
2023-02-06T12:56:02.002Z,3.13
2023-02-06T12:58:42.725Z,2.63
2023-02-06T13:01:34.546Z,2.47
2023-02-06T13:04:11.562Z,3.17
2023-02-06T13:07:00.607Z,3.00
2023-02-06T13:09:34.980Z,2.83
2023-02-06T13:12:18.716Z,2.83
2023-02-06T13:14:55.729Z,2.20
2023-02-06T13:17:36.873Z,2.80
2023-02-06T13:20:18.804Z,3.97
2023-02-06T13:23:18.971Z,3.40
2023-02-06T13:25:50.228Z,3.23
2023-02-06T13:28:34.177Z,3.10
2023-02-06T13:31:16.542Z,2.80
2023-02-06T13:33:53.022Z,3.47
2023-02-06T13:36:55.320Z,3.30
2023-02-06T13:42:45.402Z,3.10
2023-02-06T13:45:19.256Z,3.17
2023-02-06T13:48:08.559Z,2.80
2023-02-06T13:50:56.699Z,2.93
2023-02-06T13:53:44.951Z,2.70
2023-02-06T13:56:33.379Z,3.03
2023-02-06T13:59:12.019Z,3.77
2023-02-06T14:01:43.048Z,3.33
2023-02-06T14:04:18.040Z,3.30
2023-02-06T14:07:08.014Z,2.80
2023-02-06T14:10:10.464Z,2.40
2023-02-06T14:12:59.198Z,2.87
2023-02-06T14:15:39.593Z,2.47
2023-02-06T14:21:33.983Z,2.70
2023-02-06T14:24:26.145Z,2.30
2023-02-06T14:27:15.674Z,2.40
2023-02-06T14:29:58.665Z,2.07
2023-02-06T14:32:42.542Z,2.60
2023-02-06T14:35:27.421Z,2.30
2023-02-06T14:38:14.959Z,2.30
2023-02-06T14:40:47.794Z,2.10
2023-02-06T14:43:22.278Z,1.97
2023-02-06T14:46:07.138Z,2.10
2023-02-06T14:49:01.173Z,2.10
2023-02-06T14:51:42.257Z,2.10
2023-02-06T14:54:31.690Z,2.20
2023-02-06T14:57:08.893Z,2.60
2023-02-06T14:59:42.243Z,2.43
2023-02-06T15:02:21.399Z,2.17
2023-02-06T15:04:50.191Z,2.57
2023-02-06T15:07:47.973Z,2.33
2023-02-06T15:10:21.944Z,2.03
2023-02-06T15:12:59.476Z,1.80
2023-02-06T15:15:31.041Z,2.30
2023-02-06T15:18:07.134Z,2.50
2023-02-06T15:20:48.641Z,2.50
2023-02-06T15:26:14.620Z,2.30
2023-02-06T15:28:44.754Z,2.10
2023-02-06T15:31:25.228Z,1.97
2023-02-06T15:33:56.150Z,2.17
2023-02-06T15:36:35.072Z,2.23
2023-02-06T15:39:05.093Z,1.40
2023-02-06T15:41:35.102Z,1.93
2023-02-06T15:44:06.993Z,1.90
2023-02-06T15:46:38.832Z,2.23
2023-02-06T15:49:25.928Z,2.20
2023-02-06T15:51:56.070Z,2.10
2023-02-06T15:54:31.002Z,2.20
2023-02-06T15:57:08.199Z,1.87
2023-02-06T15:59:43.802Z,1.93
2023-02-06T16:02:33.267Z,1.67
2023-02-06T16:05:07.152Z,2.27
2023-02-06T16:07:42.722Z,1.77
2023-02-06T16:10:22.954Z,2.13
2023-02-06T16:12:54.847Z,2.00
2023-02-06T16:15:33.760Z,1.83
2023-02-06T16:18:06.297Z,2.13
2023-02-06T16:20:40.793Z,2.33
2023-02-06T16:23:28.981Z,1.70
2023-02-06T16:26:10.042Z,2.20
2023-02-06T16:29:04.025Z,2.00
2023-02-06T16:31:35.019Z,2.43
2023-02-06T16:34:20.735Z,1.90
2023-02-06T16:36:50.917Z,2.30
2023-02-06T16:39:25.551Z,2.30
2023-02-06T16:41:55.887Z,2.33
2023-02-06T16:44:42.966Z,2.17
2023-02-06T16:47:23.975Z,2.33
2023-02-06T16:49:56.572Z,2.50
2023-02-06T16:52:35.103Z,2.10
2023-02-06T16:55:08.240Z,2.07
2023-02-06T16:57:43.191Z,2.07
2023-02-06T17:03:11.094Z,2.60
2023-02-06T17:05:42.058Z,2.70
2023-02-06T17:08:20.834Z,2.40
2023-02-06T17:10:52.480Z,2.30
2023-02-06T17:13:29.012Z,2.77
2023-02-06T17:15:56.943Z,2.77
2023-02-06T17:18:26.694Z,2.27
2023-02-06T17:20:58.566Z,2.50
2023-02-06T17:23:29.603Z,2.17
2023-02-06T17:25:58.250Z,2.70
2023-02-06T17:28:28.133Z,2.40
2023-02-06T17:31:00.829Z,2.53
2023-02-06T17:33:31.963Z,2.40
2023-02-06T17:36:05.785Z,2.87
2023-02-06T17:38:39.278Z,2.53
2023-02-06T17:41:09.168Z,2.90
2023-02-06T17:43:41.128Z,2.63
2023-02-06T17:46:13.458Z,2.30
2023-02-06T17:48:45.775Z,2.43
2023-02-06T17:51:17.207Z,3.00
2023-02-06T17:53:49.809Z,2.40
2023-02-06T17:56:21.634Z,2.60
2023-02-06T17:58:52.590Z,2.30
2023-02-06T18:01:22.654Z,2.50
2023-02-06T18:03:54.780Z,2.30
2023-02-06T18:06:26.021Z,2.47
2023-02-06T18:08:58.295Z,2.80
2023-02-06T18:11:30.148Z,2.30
2023-02-06T18:14:02.209Z,2.57
2023-02-06T18:16:34.836Z,2.50
2023-02-06T18:19:05.856Z,2.70
2023-02-06T18:21:35.125Z,2.77
2023-02-06T18:24:05.598Z,2.40
2023-02-06T18:26:38.088Z,2.73
2023-02-06T18:29:11.429Z,2.73
2023-02-06T18:31:46.542Z,2.53
2023-02-06T18:34:20.419Z,2.83
2023-02-06T18:36:51.638Z,2.77
2023-02-06T18:39:23.791Z,2.43
2023-02-06T18:42:12.713Z,2.30
2023-02-06T18:44:45.016Z,2.37
2023-02-06T18:47:15.202Z,2.67
2023-02-06T18:49:49.206Z,2.60
2023-02-06T18:52:20.362Z,3.00
2023-02-06T18:54:49.556Z,2.87
2023-02-06T18:57:21.683Z,2.97
2023-02-06T18:59:52.603Z,2.40
2023-02-06T19:02:23.835Z,3.30
2023-02-06T19:04:54.959Z,3.10
2023-02-06T19:07:26.441Z,2.97
2023-02-06T19:10:00.096Z,2.83
2023-02-06T19:12:29.641Z,2.70
2023-02-06T19:14:57.769Z,2.47
2023-02-06T19:17:28.751Z,3.27
2023-02-06T19:19:59.432Z,3.30
2023-02-06T19:22:31.335Z,2.57
2023-02-06T19:25:03.720Z,2.80
2023-02-06T19:27:36.309Z,2.77
2023-02-06T19:30:05.079Z,3.20
2023-02-06T19:32:36.149Z,2.80
2023-02-06T19:37:55.729Z,4.07
2023-02-06T19:40:24.344Z,12.13
2023-02-06T19:42:51.625Z,10.10
2023-02-06T19:45:21.347Z,11.67
2023-02-06T19:47:52.551Z,12.63
2023-02-06T19:50:24.463Z,11.57
2023-02-06T19:52:57.043Z,11.37
2023-02-06T19:55:26.344Z,11.20
2023-02-06T19:57:59.125Z,9.50
2023-02-06T20:00:27.720Z,9.03
2023-02-06T20:02:56.304Z,8.53
2023-02-06T20:05:29.288Z,9.10
2023-02-06T20:07:58.053Z,8.47
2023-02-06T20:10:25.696Z,8.87
2023-02-06T20:12:57.196Z,8.57
2023-02-06T20:15:28.283Z,7.47
2023-02-06T20:18:00.164Z,7.47
2023-02-06T20:20:30.329Z,7.77
2023-02-06T20:23:00.244Z,7.20
2023-02-06T20:28:12.349Z,7.30
2023-02-06T20:30:41.134Z,7.00
2023-02-06T20:33:13.958Z,6.43
2023-02-06T20:35:46.814Z,6.30
2023-02-06T20:38:16.307Z,6.63
2023-02-06T20:40:51.678Z,7.00
2023-02-06T20:43:28.744Z,5.90
2023-02-06T20:45:59.025Z,6.60
2023-02-06T20:48:32.348Z,5.43
2023-02-06T20:51:04.576Z,6.27
2023-02-06T20:53:38.471Z,6.30
2023-02-06T20:56:15.319Z,5.97
2023-02-06T20:58:45.103Z,5.43
2023-02-06T21:01:24.882Z,5.07
2023-02-06T21:03:56.476Z,5.37
2023-02-06T21:06:29.295Z,4.80
2023-02-06T21:09:03.624Z,4.90
2023-02-06T21:11:46.267Z,4.27
2023-02-06T21:14:19.438Z,4.60
2023-02-06T21:16:48.715Z,5.43
2023-02-06T21:19:20.641Z,4.63
2023-02-06T21:21:52.639Z,4.50
2023-02-06T21:24:25.193Z,4.73
2023-02-06T21:26:55.208Z,5.10
2023-02-06T21:29:29.147Z,4.70
2023-02-06T21:32:13.024Z,4.50
2023-02-06T21:34:46.728Z,3.97
2023-02-06T21:37:18.552Z,4.30
2023-02-06T21:39:50.887Z,4.50
2023-02-06T21:42:26.273Z,4.17
2023-02-06T21:44:55.668Z,4.00
2023-02-06T21:47:24.142Z,4.23
2023-02-06T21:49:57.071Z,4.13
2023-02-06T21:52:25.844Z,4.50
2023-02-06T21:54:54.359Z,4.33
2023-02-06T21:57:24.408Z,3.57
2023-02-06T21:59:53.295Z,4.63
2023-02-06T22:02:24.572Z,4.10
2023-02-06T22:04:56.066Z,4.30
2023-02-06T22:07:26.821Z,4.13
2023-02-06T22:09:56.802Z,3.97
2023-02-06T22:12:28.892Z,4.23
2023-02-06T22:14:57.114Z,4.07
2023-02-06T22:17:25.359Z,3.90
2023-02-06T22:19:57.816Z,4.30
2023-02-06T22:22:28.116Z,4.00
2023-02-06T22:24:58.672Z,4.40
2023-02-06T22:27:29.433Z,3.70
2023-02-06T22:29:59.056Z,4.40
2023-02-06T22:32:31.065Z,3.90
2023-02-06T22:35:03.567Z,3.70
2023-02-06T22:40:20.819Z,3.97
2023-02-06T22:42:50.785Z,4.27
2023-02-06T22:45:22.747Z,3.90
2023-02-06T22:47:52.063Z,3.67
2023-02-06T22:50:22.740Z,3.80
2023-02-06T22:53:10.761Z,3.27
2023-02-06T22:56:14.536Z,3.63
2023-02-06T23:01:35.606Z,3.37
2023-02-06T23:04:09.539Z,3.77
2023-02-06T23:06:39.579Z,3.47
2023-02-06T23:09:11.110Z,3.23
2023-02-06T23:11:43.062Z,3.90
2023-02-06T23:14:16.313Z,3.40
2023-02-06T23:16:47.436Z,3.50
2023-02-06T23:19:16.824Z,3.50
2023-02-06T23:22:09.139Z,4.00
2023-02-06T23:24:39.351Z,3.30
2023-02-06T23:27:11.523Z,2.90
2023-02-06T23:29:42.206Z,3.30
2023-02-06T23:32:13.004Z,3.47
2023-02-06T23:34:46.119Z,3.40
2023-02-06T23:37:17.758Z,3.60
2023-02-06T23:39:46.599Z,3.33
2023-02-06T23:45:00.659Z,3.43
2023-02-06T23:47:29.050Z,2.70
2023-02-06T23:50:01.459Z,2.80
2023-02-06T23:52:34.154Z,3.00
2023-02-06T23:57:50.472Z,3.70
